createdAt,value
2022-11-18T00:01:11.732Z,4.55
2022-11-18T00:03:38.787Z,4.65
2022-11-18T00:06:05.918Z,3.90
2022-11-18T00:08:32.561Z,4.72
2022-11-18T00:10:59.138Z,4.75
2022-11-18T00:13:44.367Z,4.56
2022-11-18T00:16:12.764Z,4.42
2022-11-18T00:18:39.327Z,4.49
2022-11-18T00:21:10.495Z,4.53
2022-11-18T00:23:37.750Z,4.18
2022-11-18T00:26:05.986Z,4.16
2022-11-18T00:28:33.114Z,5.03
2022-11-18T00:31:13.714Z,4.04
2022-11-18T00:33:40.940Z,4.28
2022-11-18T00:36:09.826Z,4.28
2022-11-18T00:38:36.280Z,4.54
2022-11-18T00:41:07.981Z,4.54
2022-11-18T00:43:35.174Z,4.33
2022-11-18T00:46:02.126Z,4.53
2022-11-18T00:48:28.750Z,4.28
2022-11-18T00:50:58.126Z,4.25
2022-11-18T00:53:26.275Z,3.87
2022-11-18T00:55:53.262Z,3.72
2022-11-18T00:58:19.695Z,4.36
2022-11-18T01:00:49.797Z,4.32
2022-11-18T01:03:16.291Z,4.56
2022-11-18T01:05:42.873Z,4.51
2022-11-18T01:08:11.373Z,4.25
2022-11-18T01:10:38.801Z,4.00
2022-11-18T01:13:21.420Z,4.33
2022-11-18T01:15:56.000Z,4.36
2022-11-18T01:18:25.249Z,4.26
2022-11-18T01:20:51.974Z,3.90
2022-11-18T01:23:19.757Z,4.28
2022-11-18T01:25:48.967Z,4.21
2022-11-18T01:28:22.011Z,4.18
2022-11-18T01:30:49.966Z,4.54
2022-11-18T01:33:16.376Z,4.55
2022-11-18T01:35:43.648Z,4.65
2022-11-18T01:38:11.760Z,4.37
2022-11-18T01:40:38.712Z,3.99
2022-11-18T01:43:17.856Z,3.67
2022-11-18T01:45:46.495Z,4.05
2022-11-18T01:48:23.908Z,4.42
2022-11-18T01:51:02.299Z,3.87
2022-11-18T01:53:34.584Z,4.20
2022-11-18T01:56:12.347Z,3.72
2022-11-18T01:58:49.567Z,4.14
2022-11-18T02:01:16.111Z,4.05
2022-11-18T02:03:43.344Z,3.94
2022-11-18T02:06:10.475Z,3.90
2022-11-18T02:08:37.638Z,3.96
2022-11-18T02:11:05.152Z,4.11
2022-11-18T02:13:32.461Z,3.95
2022-11-18T02:16:15.718Z,3.81
2022-11-18T02:18:55.205Z,4.05
2022-11-18T02:21:24.137Z,4.27
2022-11-18T02:24:09.343Z,4.06
2022-11-18T02:26:54.090Z,3.91
2022-11-18T02:29:39.906Z,4.09
2022-11-18T02:32:19.530Z,3.81
2022-11-18T02:35:07.129Z,3.85
2022-11-18T02:37:37.565Z,4.55
2022-11-18T02:40:11.842Z,4.08
2022-11-18T02:42:39.213Z,4.41
2022-11-18T02:45:08.206Z,4.02
2022-11-18T02:47:36.537Z,4.24
2022-11-18T02:50:09.353Z,4.03
2022-11-18T02:52:37.586Z,3.87
2022-11-18T02:55:07.582Z,3.75
2022-11-18T02:57:34.443Z,3.76
2022-11-18T03:00:00.873Z,4.19
2022-11-18T03:02:27.448Z,4.17
2022-11-18T03:04:56.488Z,4.39
2022-11-18T03:07:28.551Z,4.56
2022-11-18T03:09:55.292Z,4.06
2022-11-18T03:12:41.215Z,3.81
2022-11-18T03:15:14.590Z,4.39
2022-11-18T03:18:29.020Z,4.40
2022-11-18T03:21:17.715Z,4.06
2022-11-18T03:23:51.473Z,4.13
2022-11-18T03:26:21.319Z,3.92
2022-11-18T03:29:00.482Z,4.19
2022-11-18T03:31:35.698Z,4.26
2022-11-18T03:34:15.151Z,4.06
2022-11-18T03:36:49.991Z,4.34
2022-11-18T03:39:19.968Z,3.89
2022-11-18T03:41:55.532Z,4.43
2022-11-18T03:44:27.390Z,4.06
2022-11-18T03:46:59.612Z,4.39
2022-11-18T03:49:37.739Z,3.74
2022-11-18T03:52:10.273Z,4.16
2022-11-18T03:54:37.939Z,4.17
2022-11-18T03:57:09.687Z,4.00
2022-11-18T03:59:45.730Z,4.34
2022-11-18T04:02:15.470Z,4.05
2022-11-18T04:04:43.102Z,3.70
2022-11-18T04:07:22.801Z,4.25
2022-11-18T04:09:58.096Z,4.04
2022-11-18T04:12:25.742Z,4.07
2022-11-18T04:14:55.461Z,3.93
2022-11-18T04:17:24.126Z,4.00
2022-11-18T04:19:50.593Z,3.67
2022-11-18T04:22:18.055Z,4.11
2022-11-18T04:24:44.635Z,4.02
2022-11-18T04:27:11.326Z,3.84
2022-11-18T04:29:37.836Z,3.67
2022-11-18T04:32:05.048Z,3.89
2022-11-18T04:34:31.683Z,3.57
2022-11-18T04:36:58.906Z,4.35
2022-11-18T04:39:25.479Z,3.73
2022-11-18T04:41:58.040Z,4.32
2022-11-18T04:44:42.775Z,3.95
2022-11-18T04:47:09.417Z,4.28
2022-11-18T04:49:36.236Z,4.43
2022-11-18T05:02:12.129Z,3.86
2022-11-18T05:07:45.728Z,3.83
2022-11-18T05:10:12.262Z,4.01
2022-11-18T05:12:51.031Z,4.04
2022-11-18T05:15:18.767Z,4.50
2022-11-18T05:17:45.635Z,4.34
2022-11-18T05:20:12.938Z,3.85
2022-11-18T05:22:39.964Z,4.36
2022-11-18T05:25:07.362Z,3.96
2022-11-18T05:27:34.220Z,3.94
2022-11-18T05:30:00.700Z,3.48
2022-11-18T05:32:27.133Z,3.99
2022-11-18T05:34:53.636Z,3.80
2022-11-18T05:37:20.097Z,3.97
2022-11-18T05:39:46.543Z,3.57
2022-11-18T05:42:31.612Z,3.60
2022-11-18T05:44:58.869Z,3.91
2022-11-18T05:47:26.167Z,3.85
2022-11-18T05:49:52.618Z,3.40
2022-11-18T05:52:19.055Z,3.58
2022-11-18T05:54:49.247Z,3.16
2022-11-18T05:57:15.672Z,3.45
2022-11-18T05:59:42.133Z,3.22
2022-11-18T06:02:14.883Z,3.59
2022-11-18T06:04:56.347Z,3.28
2022-11-18T06:07:26.368Z,3.84
2022-11-18T06:09:59.709Z,3.64
2022-11-18T06:12:30.556Z,3.54
2022-11-18T06:15:03.965Z,3.36
2022-11-18T06:17:42.173Z,3.86
2022-11-18T06:20:09.468Z,3.90
2022-11-18T06:22:35.926Z,4.05
2022-11-18T06:25:02.850Z,3.79
2022-11-18T06:27:30.117Z,3.65
2022-11-18T06:29:56.612Z,3.59
2022-11-18T06:32:23.063Z,3.36
2022-11-18T06:34:49.529Z,4.23
2022-11-18T06:37:17.848Z,4.07
2022-11-18T06:39:44.422Z,3.44
2022-11-18T06:42:11.011Z,2.48
2022-11-18T06:44:37.571Z,3.39
2022-11-18T06:47:04.626Z,2.94
2022-11-18T06:49:31.082Z,3.02
2022-11-18T06:51:57.552Z,2.73
2022-11-18T06:54:24.108Z,2.94
2022-11-18T06:56:50.620Z,2.90
2022-11-18T06:59:23.460Z,3.00
2022-11-18T07:01:50.519Z,3.21
2022-11-18T07:04:16.983Z,3.24
2022-11-18T07:06:43.442Z,2.79
2022-11-18T07:09:09.896Z,3.20
2022-11-18T07:11:38.246Z,3.33
2022-11-18T07:14:04.752Z,2.97
2022-11-18T07:16:31.232Z,3.22
2022-11-18T07:18:57.724Z,2.91
2022-11-18T07:21:26.526Z,2.73
2022-11-18T07:23:53.543Z,3.03
2022-11-18T07:26:20.499Z,2.80
2022-11-18T07:28:46.978Z,3.36
2022-11-18T07:31:15.513Z,3.10
2022-11-18T07:33:43.458Z,3.11
2022-11-18T07:36:14.779Z,3.30
2022-11-18T07:38:41.462Z,3.00
2022-11-18T07:41:10.382Z,2.75
2022-11-18T07:43:37.646Z,3.20
2022-11-18T07:46:25.301Z,2.83
2022-11-18T07:48:54.249Z,3.41
2022-11-18T07:51:22.935Z,3.62
2022-11-18T07:53:49.497Z,2.93
2022-11-18T07:56:16.417Z,2.90
2022-11-18T07:58:43.091Z,3.32
2022-11-18T08:01:16.833Z,3.10
2022-11-18T08:03:43.745Z,3.16
2022-11-18T08:06:11.382Z,2.90
2022-11-18T08:08:38.330Z,3.42
2022-11-18T08:11:07.138Z,3.44
2022-11-18T08:13:34.190Z,3.66
2022-11-18T08:16:00.783Z,3.25
2022-11-18T08:18:28.876Z,3.48
2022-11-18T08:20:55.700Z,3.54
2022-11-18T08:23:23.442Z,3.29
2022-11-18T08:25:52.524Z,3.67
2022-11-18T08:28:19.174Z,3.69
2022-11-18T08:30:45.681Z,3.77
2022-11-18T08:33:12.214Z,3.21
2022-11-18T08:35:38.655Z,3.57
2022-11-18T08:38:05.135Z,3.52
2022-11-18T08:40:31.632Z,3.68
2022-11-18T08:42:58.074Z,3.95
2022-11-18T08:45:24.591Z,3.50
2022-11-18T08:47:51.033Z,3.36
2022-11-18T08:50:17.577Z,3.93
2022-11-18T08:52:44.134Z,3.87
2022-11-18T08:55:10.567Z,3.96
2022-11-18T08:57:37.110Z,3.57
2022-11-18T09:00:05.379Z,3.22
2022-11-18T09:02:31.898Z,4.23
2022-11-18T09:04:58.357Z,4.08
2022-11-18T09:07:24.870Z,4.18
2022-11-18T09:09:51.494Z,4.06
2022-11-18T09:12:17.987Z,4.15
2022-11-18T09:17:31.555Z,4.13
2022-11-18T09:19:57.988Z,4.00
2022-11-18T09:22:24.495Z,4.76
2022-11-18T09:24:51.395Z,4.60
2022-11-18T09:27:18.163Z,4.95
2022-11-18T09:29:45.306Z,4.78
2022-11-18T09:32:12.010Z,4.60
2022-11-18T09:34:38.494Z,4.33
2022-11-18T09:37:06.657Z,4.19
2022-11-18T09:39:37.361Z,4.41
2022-11-18T09:42:33.136Z,4.50
2022-11-18T09:45:02.588Z,5.05
2022-11-18T09:47:30.388Z,5.24
2022-11-18T09:50:27.196Z,5.42
2022-11-18T09:53:04.670Z,5.19
2022-11-18T09:55:31.749Z,5.59
2022-11-18T09:57:59.229Z,4.99
2022-11-18T10:00:28.114Z,5.08
2022-11-18T10:03:01.669Z,5.91
2022-11-18T10:05:33.125Z,5.41
2022-11-18T10:08:08.625Z,5.42
2022-11-18T10:11:12.266Z,5.77
2022-11-18T10:13:48.779Z,5.64
2022-11-18T10:16:42.019Z,5.57
2022-11-18T10:19:30.395Z,5.30
2022-11-18T10:22:20.999Z,5.33
2022-11-18T10:24:51.343Z,5.54
2022-11-18T10:27:18.181Z,5.35
2022-11-18T10:29:46.444Z,5.07
2022-11-18T10:32:15.012Z,5.33
2022-11-18T10:34:54.962Z,5.42
2022-11-18T10:38:06.306Z,5.49
2022-11-18T10:40:28.097Z,5.63
2022-11-18T10:42:54.686Z,5.57
2022-11-18T10:45:21.084Z,5.69
2022-11-18T10:48:01.377Z,5.57
2022-11-18T10:50:30.344Z,5.88
2022-11-18T10:52:56.811Z,6.49
2022-11-18T10:55:24.927Z,6.14
2022-11-18T10:57:55.301Z,6.28
2022-11-18T11:00:34.095Z,6.08
2022-11-18T11:03:01.326Z,5.87
2022-11-18T11:05:28.115Z,6.15
2022-11-18T11:08:21.543Z,6.40
2022-11-18T11:10:56.926Z,6.85
2022-11-18T11:13:26.159Z,6.64
2022-11-18T11:15:55.555Z,6.73
2022-11-18T11:18:42.805Z,6.93
2022-11-18T11:21:20.547Z,7.28
2022-11-18T11:23:47.123Z,6.61
2022-11-18T11:29:53.493Z,6.26
2022-11-18T11:32:45.887Z,6.61
2022-11-18T11:35:18.366Z,6.51
2022-11-18T11:37:55.170Z,6.35
2022-11-18T11:40:25.871Z,7.04
2022-11-18T11:43:17.654Z,7.17
2022-11-18T11:45:48.109Z,7.52
2022-11-18T11:48:18.396Z,7.09
2022-11-18T11:51:01.969Z,7.11
2022-11-18T11:53:43.078Z,7.08
2022-11-18T11:56:23.458Z,7.27
2022-11-18T11:59:11.323Z,6.97
2022-11-18T12:01:43.887Z,6.87
2022-11-18T12:04:37.072Z,6.79
2022-11-18T12:07:06.349Z,6.90
2022-11-18T12:09:32.823Z,7.02
2022-11-18T12:12:32.768Z,7.44
2022-11-18T12:15:25.639Z,7.35
2022-11-18T12:18:25.596Z,7.39
2022-11-18T12:20:53.772Z,7.25
2022-11-18T12:23:26.437Z,7.08
2022-11-18T12:26:09.911Z,7.28
2022-11-18T12:28:37.772Z,7.64
2022-11-18T12:31:19.649Z,6.85
2022-11-18T12:34:19.615Z,7.35
2022-11-18T12:36:47.420Z,7.57
2022-11-18T12:39:26.104Z,7.34
2022-11-18T12:42:15.639Z,7.62
2022-11-18T12:44:43.375Z,7.94
2022-11-18T12:47:11.090Z,7.34
2022-11-18T12:49:37.511Z,7.30
2022-11-18T12:52:05.682Z,7.37
2022-11-18T12:54:41.209Z,7.36
2022-11-18T12:57:27.709Z,7.66
2022-11-18T12:59:54.528Z,7.17
2022-11-18T13:02:24.826Z,7.01
2022-11-18T13:05:06.408Z,6.85
2022-11-18T13:08:06.694Z,6.76
2022-11-18T13:10:35.680Z,6.70
2022-11-18T13:13:02.389Z,6.90
2022-11-18T13:15:47.528Z,6.81
2022-11-18T13:18:17.745Z,7.50
2022-11-18T13:20:54.659Z,7.45
2022-11-18T13:23:59.414Z,7.36
2022-11-18T13:26:29.620Z,7.01
2022-11-18T13:29:15.622Z,7.64
2022-11-18T13:31:52.406Z,7.58
2022-11-18T13:34:26.743Z,6.94
2022-11-18T13:36:54.596Z,7.60
2022-11-18T13:39:32.020Z,7.22
2022-11-18T13:42:14.726Z,7.26
2022-11-18T13:44:45.260Z,6.79
2022-11-18T13:47:36.339Z,6.56
2022-11-18T13:50:18.202Z,6.58
2022-11-18T13:52:49.448Z,6.63
2022-11-18T13:55:20.268Z,6.52
2022-11-18T13:57:52.476Z,6.66
2022-11-18T14:00:26.531Z,6.21
2022-11-18T14:03:19.043Z,6.67
2022-11-18T14:05:56.076Z,6.10
2022-11-18T14:08:30.684Z,6.31
2022-11-18T14:10:57.769Z,6.23
2022-11-18T14:13:28.888Z,6.25
2022-11-18T14:16:00.928Z,6.54
2022-11-18T14:18:37.589Z,6.22
2022-11-18T14:21:05.851Z,6.65
2022-11-18T14:23:34.491Z,6.12
2022-11-18T14:26:03.554Z,6.02
2022-11-18T14:28:38.040Z,6.05
2022-11-18T14:31:23.966Z,6.36
2022-11-18T14:34:18.565Z,6.76
2022-11-18T14:36:48.387Z,5.57
2022-11-18T14:39:27.365Z,6.20
2022-11-18T14:41:54.578Z,6.16
2022-11-18T14:44:22.167Z,5.94
2022-11-18T14:46:55.308Z,5.91
2022-11-18T14:49:24.091Z,5.90
2022-11-18T14:51:51.632Z,6.05
2022-11-18T14:54:25.901Z,6.15
2022-11-18T14:57:06.717Z,6.05
2022-11-18T14:59:33.194Z,5.68
2022-11-18T15:02:00.144Z,5.92
2022-11-18T15:04:26.990Z,6.01
2022-11-18T15:06:53.763Z,5.86
2022-11-18T15:09:20.390Z,5.79
2022-11-18T15:11:46.899Z,5.58
2022-11-18T15:14:13.354Z,5.60
2022-11-18T15:16:39.876Z,5.10
2022-11-18T15:19:07.270Z,5.41
2022-11-18T15:21:33.971Z,5.46
2022-11-18T15:24:00.657Z,5.46
2022-11-18T15:26:35.932Z,5.67
2022-11-18T15:29:02.375Z,5.54
2022-11-18T15:31:28.968Z,5.68
2022-11-18T15:33:55.916Z,5.56
2022-11-18T15:36:24.281Z,5.51
2022-11-18T15:38:51.889Z,5.13
2022-11-18T15:41:23.681Z,5.01
2022-11-18T15:43:50.699Z,5.29
2022-11-18T15:46:21.466Z,5.04
2022-11-18T15:48:51.378Z,5.35
2022-11-18T15:51:18.078Z,4.91
2022-11-18T15:53:44.653Z,4.82
2022-11-18T15:56:23.229Z,5.09
2022-11-18T15:59:10.411Z,5.20
2022-11-18T16:01:42.511Z,4.91
2022-11-18T16:04:10.778Z,4.84
2022-11-18T16:06:37.787Z,5.07
2022-11-18T16:09:05.366Z,4.89
2022-11-18T16:11:50.454Z,4.94
2022-11-18T16:14:19.441Z,5.10
2022-11-18T16:16:47.486Z,4.85
2022-11-18T16:19:16.926Z,4.89
2022-11-18T16:21:47.078Z,4.80
2022-11-18T16:24:17.633Z,4.53
2022-11-18T16:26:44.480Z,4.84
2022-11-18T16:29:11.966Z,4.88
2022-11-18T16:31:41.336Z,4.67
2022-11-18T16:34:08.674Z,4.57
2022-11-18T16:36:36.458Z,4.09
2022-11-18T16:39:08.126Z,4.50
2022-11-18T16:41:35.148Z,4.39
2022-11-18T16:44:03.703Z,4.54
2022-11-18T16:46:31.797Z,4.39
2022-11-18T16:48:58.781Z,4.61
2022-11-18T16:51:30.079Z,4.09
2022-11-18T16:56:33.041Z,4.12
2022-11-18T16:59:01.752Z,4.00
2022-11-18T17:01:29.846Z,3.89
2022-11-18T17:04:03.228Z,3.93
2022-11-18T17:06:31.052Z,3.76
2022-11-18T17:09:01.092Z,3.60
2022-11-18T17:11:27.780Z,3.67
2022-11-18T17:13:58.013Z,3.75
2022-11-18T17:16:24.818Z,3.62
2022-11-18T17:18:58.676Z,3.71
2022-11-18T17:21:26.675Z,3.52
2022-11-18T17:23:53.850Z,3.40
2022-11-18T17:26:23.199Z,3.59
2022-11-18T17:28:50.168Z,3.45
2022-11-18T17:31:21.447Z,3.48
2022-11-18T17:33:53.580Z,3.43
2022-11-18T17:36:23.356Z,3.40
2022-11-18T17:38:52.294Z,3.44
2022-11-18T17:41:55.509Z,3.45
2022-11-18T17:44:25.514Z,3.68
2022-11-18T17:46:52.584Z,3.38
2022-11-18T17:49:19.501Z,3.53
2022-11-18T17:51:51.054Z,3.26
2022-11-18T17:54:21.855Z,3.37
2022-11-18T17:56:54.670Z,3.13
2022-11-18T17:59:24.683Z,3.22
2022-11-18T18:01:57.346Z,3.21
2022-11-18T18:04:29.261Z,3.33
2022-11-18T18:06:59.587Z,3.34
2022-11-18T18:09:31.143Z,3.09
2022-11-18T18:11:59.532Z,2.94
2022-11-18T18:14:25.995Z,3.14
2022-11-18T18:16:52.447Z,3.03
2022-11-18T18:19:20.750Z,2.90
2022-11-18T18:21:47.743Z,2.97
2022-11-18T18:24:17.264Z,3.14
2022-11-18T18:26:44.131Z,2.93
2022-11-18T18:29:12.031Z,3.11
2022-11-18T18:31:38.610Z,3.06
2022-11-18T18:34:05.443Z,2.91
2022-11-18T18:36:32.581Z,2.88
2022-11-18T18:38:59.555Z,2.88
2022-11-18T18:41:26.088Z,2.71
2022-11-18T18:43:52.710Z,2.80
2022-11-18T18:49:23.252Z,2.79
2022-11-18T18:51:50.212Z,2.65
2022-11-18T18:57:26.175Z,2.73
2022-11-18T19:08:24.523Z,2.36
2022-11-18T20:07:32.379Z,1.68
2022-11-18T20:29:57.195Z,2.09
2022-11-18T21:37:25.203Z,1.83
2022-11-18T23:08:42.208Z,0.56
2022-11-18T23:11:35.386Z,0.67
2022-11-18T23:14:05.863Z,1.00
2022-11-18T23:16:34.078Z,0.72
2022-11-18T23:19:02.619Z,0.80
2022-11-18T23:21:29.400Z,0.98
2022-11-18T23:23:55.846Z,0.91
2022-11-18T23:26:22.941Z,1.01
2022-11-18T23:28:49.520Z,0.80
2022-11-18T23:31:18.684Z,0.72
2022-11-18T23:33:45.457Z,0.70
2022-11-18T23:36:14.211Z,0.97
2022-11-18T23:38:40.979Z,0.95
2022-11-18T23:41:10.330Z,0.39
2022-11-18T23:43:37.327Z,0.00
2022-11-18T23:46:04.912Z,0.19
2022-11-18T23:48:33.459Z,0.47
2022-11-18T23:51:02.260Z,0.73
2022-11-18T23:53:30.370Z,0.86
2022-11-18T23:55:57.624Z,0.96
2022-11-18T23:58:24.297Z,0.62
